Time;durP1;ratioP1;P1;durP2;ratioP2;P2;SDS_P1;SDS_P2;PMS_P1;PMS_P2;Temp;Humidity;BMP_temperature;BMP_pressure;BME280_temperature;BME280_humidity;BME280_pressure;Samples;Min_cycle;Max_cycle;Signal;HPM_P1;HPM_P2
2022/04/12 00:00:25;;;;;;;11.20;6.63;;;;;;;;;;5007780;28;20056;-70
2022/04/12 00:03:10;;;;;;;9.75;5.35;;;;;;;;;;5020976;28;20057;-69
2022/04/12 00:05:55;;;;;;;9.90;5.13;;;;;;;;;;5021088;28;20441;-69
2022/04/12 00:08:41;;;;;;;10.75;4.90;;;;;;;;;;4974270;28;20032;-67
2022/04/12 00:11:26;;;;;;;10.68;5.43;;;;;;;;;;4985082;28;20025;-69
2022/04/12 00:14:11;;;;;;;9.95;5.53;;;;;;;;;;4991392;28;20116;-67
2022/04/12 00:20:03;;;;;;;8.80;5.68;;;;;;;;;;4969223;28;20133;-67
2022/04/12 00:22:48;;;;;;;8.77;5.93;;;;;;;;;;4994111;28;20040;-66
2022/04/12 00:25:33;;;;;;;9.40;5.22;;;;;;;;;;5003736;28;20050;-66
2022/04/12 00:28:19;;;;;;;9.07;4.93;;;;;;;;;;4969895;28;20022;-67
2022/04/12 00:31:04;;;;;;;11.23;5.78;;;;;;;;;;5008501;28;20481;-67
2022/04/12 00:33:49;;;;;;;8.65;5.63;;;;;;;;;;5007966;28;20058;-77
2022/04/12 00:36:35;;;;;;;12.57;6.00;;;;;;;;;;5023801;28;20381;-76
2022/04/12 00:39:20;;;;;;;8.60;5.70;;;;;;;;;;4975316;28;20034;-77
2022/04/12 00:42:06;;;;;;;11.25;5.88;;;;;;;;;;5022205;28;20045;-78
2022/04/12 00:44:51;;;;;;;10.15;5.32;;;;;;;;;;4994424;28;20044;-77
2022/04/12 00:47:36;;;;;;;11.85;5.60;;;;;;;;;;5010937;28;20125;-63
2022/04/12 00:50:22;;;;;;;12.93;6.05;;;;;;;;;;4994443;28;20044;-70
2022/04/12 00:53:08;;;;;;;10.30;5.97;;;;;;;;;;5007162;28;20390;-70
2022/04/12 00:55:53;;;;;;;10.90;6.22;;;;;;;;;;4994523;28;20426;-71
2022/04/12 00:58:40;;;;;;;10.80;6.43;;;;;;;;;;4992537;28;20057;-73
2022/04/12 01:01:25;;;;;;;14.43;6.47;;;;;;;;;;5000917;28;20057;-72
2022/04/12 01:04:10;;;;;;;9.85;5.90;;;;;;;;;;4990064;28;20030;-71
2022/04/12 01:06:56;;;;;;;15.82;5.53;;;;;;;;;;5001297;28;20026;-63
2022/04/12 01:09:41;;;;;;;11.23;6.25;;;;;;;;;;4994074;28;20029;-72
2022/04/12 01:12:30;;;;;;;12.02;5.65;;;;;;;;;;5000970;28;20049;-74
2022/04/12 01:15:25;;;;;;;9.93;5.88;;;;;;;;;;5004070;28;20114;-73
2022/04/12 01:18:10;;;;;;;9.30;5.38;;;;;;;;;;5007062;28;20648;-71
2022/04/12 01:20:55;;;;;;;9.95;5.40;;;;;;;;;;4972067;28;20025;-74
2022/04/12 01:24:00;;;;;;;9.50;5.75;;;;;;;;;;4990243;28;20058;-73
2022/04/12 01:26:46;;;;;;;9.15;5.55;;;;;;;;;;4982535;28;20054;-69
2022/04/12 01:29:33;;;;;;;10.10;5.40;;;;;;;;;;5000595;28;20363;-73
2022/04/12 01:32:18;;;;;;;10.30;5.43;;;;;;;;;;4984819;28;20023;-74
2022/04/12 01:35:04;;;;;;;9.85;5.90;;;;;;;;;;4999765;28;20022;-72
2022/04/12 01:37:49;;;;;;;9.57;5.28;;;;;;;;;;5004464;28;20097;-72
2022/04/12 01:40:34;;;;;;;9.60;5.47;;;;;;;;;;4985395;28;20021;-71
2022/04/12 01:43:19;;;;;;;9.45;5.15;;;;;;;;;;5015384;28;20061;-69
2022/04/12 01:46:05;;;;;;;10.00;5.00;;;;;;;;;;4986581;28;20303;-71
2022/04/12 01:48:50;;;;;;;8.98;5.10;;;;;;;;;;5015761;28;20035;-69
2022/04/12 01:51:35;;;;;;;9.40;5.35;;;;;;;;;;5000518;28;20034;-70
2022/04/12 01:54:21;;;;;;;8.45;5.03;;;;;;;;;;5015235;28;20026;-71
2022/04/12 01:57:06;;;;;;;12.07;5.60;;;;;;;;;;4984152;28;20058;-73
2022/04/12 01:59:51;;;;;;;11.48;5.38;;;;;;;;;;4985505;28;20128;-71
2022/04/12 02:02:36;;;;;;;8.50;5.55;;;;;;;;;;4985060;28;20026;-71
2022/04/12 02:05:22;;;;;;;13.23;5.80;;;;;;;;;;5000835;28;20089;-68
2022/04/12 02:08:08;;;;;;;8.48;5.10;;;;;;;;;;4987728;28;20026;-67
2022/04/12 02:10:53;;;;;;;10.27;5.55;;;;;;;;;;5014903;28;20037;-64
2022/04/12 02:13:38;;;;;;;10.20;5.68;;;;;;;;;;4978654;28;20091;-65
2022/04/12 02:16:24;;;;;;;10.65;5.50;;;;;;;;;;4988664;28;20514;-66
2022/04/12 02:19:09;;;;;;;8.77;5.55;;;;;;;;;;4984707;28;20405;-73
2022/04/12 02:21:54;;;;;;;8.98;5.65;;;;;;;;;;4989920;28;20105;-71
2022/04/12 02:24:39;;;;;;;10.40;5.78;;;;;;;;;;4996236;28;20524;-76
2022/04/12 02:27:25;;;;;;;8.70;5.55;;;;;;;;;;4984697;28;20043;-76
2022/04/12 02:30:10;;;;;;;8.90;5.18;;;;;;;;;;4985544;28;20030;-75
2022/04/12 02:32:56;;;;;;;9.93;6.28;;;;;;;;;;4984445;28;20030;-78
2022/04/12 02:35:41;;;;;;;10.25;5.18;;;;;;;;;;4971471;28;20037;-78
2022/04/12 02:38:26;;;;;;;7.72;4.97;;;;;;;;;;4995414;28;20030;-69
2022/04/12 02:41:11;;;;;;;11.60;5.50;;;;;;;;;;4984547;28;20022;-67
2022/04/12 02:43:57;;;;;;;10.45;6.57;;;;;;;;;;4971163;28;20069;-69
2022/04/12 02:46:42;;;;;;;9.65;5.75;;;;;;;;;;4951924;28;20418;-67
2022/04/12 02:49:27;;;;;;;14.63;6.05;;;;;;;;;;4994707;28;20058;-68
2022/04/12 02:52:13;;;;;;;10.55;5.15;;;;;;;;;;4998657;28;20034;-67
2022/04/12 02:54:58;;;;;;;10.55;5.55;;;;;;;;;;4976599;28;20030;-65
2022/04/12 02:57:43;;;;;;;10.77;5.43;;;;;;;;;;4992819;28;20123;-62
2022/04/12 03:00:28;;;;;;;11.85;5.60;;;;;;;;;;4964740;28;20062;-66
2022/04/12 03:03:14;;;;;;;10.07;5.32;;;;;;;;;;4973157;28;20027;-68
2022/04/12 03:05:59;;;;;;;10.45;5.80;;;;;;;;;;4968760;28;20103;-67
2022/04/12 03:08:44;;;;;;;9.00;5.38;;;;;;;;;;4963283;28;20026;-67
2022/04/12 03:11:29;;;;;;;10.52;6.25;;;;;;;;;;4959455;28;20030;-69
2022/04/12 03:14:15;;;;;;;11.25;5.75;;;;;;;;;;4966815;28;20534;-67
2022/04/12 03:17:00;;;;;;;9.57;5.82;;;;;;;;;;4967775;28;20034;-76
2022/04/12 03:19:45;;;;;;;10.90;6.32;;;;;;;;;;4982495;28;20394;-64
2022/04/12 03:22:30;;;;;;;9.20;5.65;;;;;;;;;;4971077;28;20027;-62
2022/04/12 03:25:16;;;;;;;8.63;6.13;;;;;;;;;;4965902;28;20474;-63
2022/04/12 03:28:01;;;;;;;9.48;5.63;;;;;;;;;;5023045;28;20026;-63
2022/04/12 03:30:47;;;;;;;10.50;6.10;;;;;;;;;;5004743;28;20111;-62
2022/04/12 03:33:32;;;;;;;9.30;5.70;;;;;;;;;;4985534;28;20485;-70
2022/04/12 03:36:17;;;;;;;9.45;5.50;;;;;;;;;;5002223;28;20025;-65
2022/04/12 03:39:04;;;;;;;9.57;5.70;;;;;;;;;;4998550;28;20034;-67
2022/04/12 03:41:51;;;;;;;9.02;6.43;;;;;;;;;;4995907;28;20026;-65
2022/04/12 03:44:37;;;;;;;9.68;5.10;;;;;;;;;;4998204;28;20754;-66
2022/04/12 03:47:22;;;;;;;10.73;6.03;;;;;;;;;;5018220;28;20030;-63
2022/04/12 03:50:07;;;;;;;11.20;5.63;;;;;;;;;;5009461;28;20104;-65
2022/04/12 03:52:53;;;;;;;10.38;6.07;;;;;;;;;;4996267;28;20449;-65
2022/04/12 03:55:40;;;;;;;10.13;5.70;;;;;;;;;;4994609;28;20022;-66
2022/04/12 03:58:26;;;;;;;11.38;5.85;;;;;;;;;;4983062;28;20033;-68
2022/04/12 04:01:11;;;;;;;11.13;6.18;;;;;;;;;;5007515;28;20473;-67
2022/04/12 04:03:56;;;;;;;9.35;5.93;;;;;;;;;;5008856;28;20180;-67
2022/04/12 04:06:42;;;;;;;9.23;5.45;;;;;;;;;;4998793;28;20031;-67
2022/04/12 04:09:27;;;;;;;10.75;5.43;;;;;;;;;;4993481;28;20014;-68
2022/04/12 04:12:12;;;;;;;11.60;5.82;;;;;;;;;;5002206;28;20026;-64
2022/04/12 04:14:58;;;;;;;9.55;6.30;;;;;;;;;;4989506;28;20030;-67
2022/04/12 04:17:44;;;;;;;12.35;6.53;;;;;;;;;;5018031;28;20621;-68
2022/04/12 04:20:29;;;;;;;9.57;6.57;;;;;;;;;;5008936;28;20029;-66
2022/04/12 04:23:14;;;;;;;8.90;5.68;;;;;;;;;;5015019;28;20105;-66
2022/04/12 04:26:01;;;;;;;12.75;6.55;;;;;;;;;;4992295;28;20079;-68
2022/04/12 04:28:48;;;;;;;13.82;6.82;;;;;;;;;;5005158;28;20026;-62
2022/04/12 04:31:34;;;;;;;9.90;6.43;;;;;;;;;;5021480;28;20033;-67
2022/04/12 04:34:19;;;;;;;11.93;6.80;;;;;;;;;;4993121;28;20053;-67
2022/04/12 04:37:04;;;;;;;11.18;6.13;;;;;;;;;;5012117;28;20117;-68
2022/04/12 04:39:49;;;;;;;10.68;6.20;;;;;;;;;;4990267;28;20048;-65
2022/04/12 04:42:35;;;;;;;13.07;6.93;;;;;;;;;;5009832;28;20124;-65
2022/04/12 04:45:20;;;;;;;10.90;6.45;;;;;;;;;;4983547;28;20087;-64
2022/04/12 04:48:06;;;;;;;13.80;6.63;;;;;;;;;;4990512;28;20017;-64
2022/04/12 04:50:51;;;;;;;12.32;6.93;;;;;;;;;;5022667;28;20032;-72
2022/04/12 04:53:37;;;;;;;11.13;6.72;;;;;;;;;;5019888;28;20029;-73
2022/04/12 04:56:22;;;;;;;12.27;6.47;;;;;;;;;;4990705;28;20107;-71
2022/04/12 04:59:10;;;;;;;12.10;5.93;;;;;;;;;;5019243;28;20041;-70
2022/04/12 05:01:55;;;;;;;11.75;6.40;;;;;;;;;;4994934;28;20033;-70
2022/04/12 05:04:40;;;;;;;10.38;5.60;;;;;;;;;;4990990;28;20030;-72
2022/04/12 05:07:26;;;;;;;10.77;6.32;;;;;;;;;;4988372;28;20505;-70
2022/04/12 05:10:18;;;;;;;12.27;6.63;;;;;;;;;;5023724;28;20032;-72
2022/04/12 05:13:04;;;;;;;11.73;6.70;;;;;;;;;;5015981;28;20032;-70
2022/04/12 05:15:49;;;;;;;9.93;6.13;;;;;;;;;;5004705;28;20031;-70
2022/04/12 05:18:34;;;;;;;11.75;6.03;;;;;;;;;;5015383;28;20200;-70
2022/04/12 05:21:20;;;;;;;10.77;6.60;;;;;;;;;;4993654;28;20544;-72
2022/04/12 05:24:05;;;;;;;9.35;6.20;;;;;;;;;;5005439;28;20054;-71
2022/04/12 05:26:50;;;;;;;10.68;6.30;;;;;;;;;;4986317;28;20057;-63
2022/04/12 05:29:36;;;;;;;11.15;6.25;;;;;;;;;;5000514;28;20076;-63
2022/04/12 05:32:21;;;;;;;12.55;6.60;;;;;;;;;;4968864;28;20027;-63
2022/04/12 05:35:07;;;;;;;12.60;6.75;;;;;;;;;;4984483;28;20494;-65
2022/04/12 05:37:53;;;;;;;10.88;6.32;;;;;;;;;;4995451;28;20038;-63
2022/04/12 05:40:38;;;;;;;9.35;6.55;;;;;;;;;;5013944;28;20037;-64
2022/04/12 05:43:23;;;;;;;10.27;6.25;;;;;;;;;;4985260;28;20023;-72
2022/04/12 05:46:09;;;;;;;11.80;6.82;;;;;;;;;;4994182;28;20381;-66
2022/04/12 05:48:54;;;;;;;11.23;6.72;;;;;;;;;;4978425;28;20034;-66
2022/04/12 05:51:39;;;;;;;14.35;6.97;;;;;;;;;;5004453;28;20488;-68
2022/04/12 05:54:24;;;;;;;13.82;6.43;;;;;;;;;;4992680;28;20099;-70
2022/04/12 05:57:10;;;;;;;11.57;6.22;;;;;;;;;;4985121;28;20034;-69
2022/04/12 05:59:55;;;;;;;10.15;6.13;;;;;;;;;;4990005;28;20430;-65
2022/04/12 06:02:40;;;;;;;13.57;6.68;;;;;;;;;;4982771;28;20026;-70
2022/04/12 06:05:28;;;;;;;12.35;6.60;;;;;;;;;;4986403;28;20032;-70
2022/04/12 06:08:13;;;;;;;12.70;6.50;;;;;;;;;;4986633;28;20428;-70
2022/04/12 06:10:58;;;;;;;10.95;7.05;;;;;;;;;;5006851;28;20066;-72
2022/04/12 06:13:43;;;;;;;12.77;7.20;;;;;;;;;;4992058;28;20018;-70
2022/04/12 06:16:29;;;;;;;10.63;6.60;;;;;;;;;;4974482;28;20022;-72
2022/04/12 06:19:14;;;;;;;13.73;6.28;;;;;;;;;;5004346;28;20068;-66
2022/04/12 06:21:59;;;;;;;12.07;6.88;;;;;;;;;;4983338;28;20458;-72
2022/04/12 06:24:45;;;;;;;11.85;6.55;;;;;;;;;;5005184;28;20080;-71
2022/04/12 06:27:37;;;;;;;13.00;8.35;;;;;;;;;;5003959;28;20390;-72
2022/04/12 06:30:23;;;;;;;14.52;7.55;;;;;;;;;;4996420;28;20015;-72
2022/04/12 06:33:09;;;;;;;10.30;6.30;;;;;;;;;;5003800;28;20026;-71
2022/04/12 06:35:54;;;;;;;11.40;6.43;;;;;;;;;;4989417;28;20037;-70
2022/04/12 06:38:41;;;;;;;11.73;7.03;;;;;;;;;;5004008;28;20112;-79
2022/04/12 06:41:26;;;;;;;14.30;6.47;;;;;;;;;;5016073;28;20381;-73
2022/04/12 06:44:11;;;;;;;15.60;6.45;;;;;;;;;;5012177;28;20092;-70
2022/04/12 06:46:56;;;;;;;12.57;6.65;;;;;;;;;;4989126;28;20030;-72
2022/04/12 06:49:43;;;;;;;10.82;5.97;;;;;;;;;;4990680;28;20482;-70
2022/04/12 06:52:28;;;;;;;10.25;6.03;;;;;;;;;;5016727;28;20053;-70
2022/04/12 06:55:15;;;;;;;12.10;7.43;;;;;;;;;;5018198;28;20349;-70
2022/04/12 06:58:01;;;;;;;14.10;5.47;;;;;;;;;;4996858;28;20334;-68
2022/04/12 07:00:46;;;;;;;9.57;5.80;;;;;;;;;;4977379;28;20021;-70
2022/04/12 07:03:31;;;;;;;8.85;5.18;;;;;;;;;;5017177;28;20374;-72
2022/04/12 07:06:16;;;;;;;10.30;6.25;;;;;;;;;;5017466;28;20027;-73
2022/04/12 07:09:05;;;;;;;10.80;5.78;;;;;;;;;;4989997;28;20429;-71
2022/04/12 07:11:50;;;;;;;14.20;6.38;;;;;;;;;;4990770;28;20033;-70
2022/04/12 07:14:36;;;;;;;10.50;5.97;;;;;;;;;;4984945;28;20085;-65
2022/04/12 07:17:22;;;;;;;10.38;6.90;;;;;;;;;;4991371;28;20033;-70
2022/04/12 07:20:07;;;;;;;11.75;5.88;;;;;;;;;;4975992;28;20061;-70
2022/04/12 07:22:52;;;;;;;10.50;5.72;;;;;;;;;;5005265;28;20374;-71
2022/04/12 07:25:38;;;;;;;12.45;6.20;;;;;;;;;;4994484;28;20050;-70
2022/04/12 07:28:23;;;;;;;9.60;5.82;;;;;;;;;;4982450;28;20473;-71
2022/04/12 07:31:08;;;;;;;10.40;5.68;;;;;;;;;;4995903;28;20049;-70
2022/04/12 07:33:54;;;;;;;11.57;6.22;;;;;;;;;;4995050;28;20420;-65
2022/04/12 07:36:47;;;;;;;13.48;6.80;;;;;;;;;;5010733;28;20109;-69
2022/04/12 07:39:32;;;;;;;9.60;6.10;;;;;;;;;;4997577;28;20100;-70
2022/04/12 07:42:17;;;;;;;13.00;6.10;;;;;;;;;;5011280;28;20509;-73
2022/04/12 07:45:03;;;;;;;14.68;6.53;;;;;;;;;;4993023;28;20014;-72
2022/04/12 07:47:48;;;;;;;10.98;6.20;;;;;;;;;;5007842;28;20492;-69
2022/04/12 07:50:33;;;;;;;9.35;5.28;;;;;;;;;;4985533;28;20037;-68
2022/04/12 07:53:18;;;;;;;12.90;6.85;;;;;;;;;;5009887;28;20539;-68
2022/04/12 07:56:04;;;;;;;10.43;5.95;;;;;;;;;;4989793;28;20022;-71
2022/04/12 07:58:49;;;;;;;11.40;5.82;;;;;;;;;;4997047;28;20075;-73
2022/04/12 08:01:34;;;;;;;10.82;5.70;;;;;;;;;;5005900;28;20030;-71
2022/04/12 08:04:19;;;;;;;9.98;5.80;;;;;;;;;;5018064;28;20018;-72
2022/04/12 08:07:04;;;;;;;14.68;5.95;;;;;;;;;;5009027;28;20084;-73
2022/04/12 08:09:50;;;;;;;11.90;6.20;;;;;;;;;;4982014;28;20084;-68
2022/04/12 08:12:35;;;;;;;9.32;5.57;;;;;;;;;;4995450;28;20088;-64
2022/04/12 08:15:20;;;;;;;13.48;5.75;;;;;;;;;;4994003;28;21063;-65
2022/04/12 08:18:06;;;;;;;9.10;5.07;;;;;;;;;;4989842;28;20038;-65
2022/04/12 08:20:51;;;;;;;10.00;5.93;;;;;;;;;;4979488;28;20022;-62
2022/04/12 08:23:37;;;;;;;14.48;5.78;;;;;;;;;;4995354;28;20080;-67
2022/04/12 08:26:22;;;;;;;12.10;4.93;;;;;;;;;;4992866;28;20144;-63
2022/04/12 08:29:07;;;;;;;11.00;5.32;;;;;;;;;;5017577;28;20026;-79
2022/04/12 08:31:53;;;;;;;9.32;4.72;;;;;;;;;;5015491;28;20432;-73
2022/04/12 08:34:38;;;;;;;9.90;4.72;;;;;;;;;;5003361;28;20022;-69
2022/04/12 08:37:24;;;;;;;11.13;4.97;;;;;;;;;;4988423;28;20051;-68
2022/04/12 08:40:10;;;;;;;9.00;4.28;;;;;;;;;;4990821;28;20096;-69
2022/04/12 08:42:56;;;;;;;9.68;4.78;;;;;;;;;;5019483;28;20061;-68
2022/04/12 08:45:41;;;;;;;8.68;4.78;;;;;;;;;;5019696;28;20022;-72
2022/04/12 08:48:27;;;;;;;9.75;4.38;;;;;;;;;;5007450;28;20539;-68
2022/04/12 08:51:12;;;;;;;6.75;3.50;;;;;;;;;;5008489;28;20048;-83
2022/04/12 08:53:58;;;;;;;7.95;4.45;;;;;;;;;;5027017;28;20430;-83
2022/04/12 08:56:45;;;;;;;7.93;4.07;;;;;;;;;;4980426;28;20033;-79
2022/04/12 08:59:31;;;;;;;7.75;4.32;;;;;;;;;;4993237;28;20060;-79
2022/04/12 09:02:16;;;;;;;7.65;3.75;;;;;;;;;;5016431;28;20120;-79
2022/04/12 09:05:01;;;;;;;7.18;4.05;;;;;;;;;;4981963;28;20408;-65
2022/04/12 09:07:47;;;;;;;10.70;3.90;;;;;;;;;;4992825;28;20030;-64
2022/04/12 09:10:36;;;;;;;8.15;3.55;;;;;;;;;;5021838;28;20477;-67
2022/04/12 09:13:21;;;;;;;10.63;3.92;;;;;;;;;;4986346;28;20392;-66
2022/04/12 09:16:07;;;;;;;6.20;4.00;;;;;;;;;;5007691;28;20058;-68
2022/04/12 09:18:52;;;;;;;6.70;4.15;;;;;;;;;;5016009;28;20045;-64
2022/04/12 09:21:46;;;;;;;6.68;3.25;;;;;;;;;;5023528;28;20068;-64
2022/04/12 09:24:31;;;;;;;7.65;3.33;;;;;;;;;;5001192;28;20507;-66
2022/04/12 09:27:21;;;;;;;4.47;3.00;;;;;;;;;;5014944;28;20156;-69
2022/04/12 09:30:08;;;;;;;7.43;3.42;;;;;;;;;;5000686;28;20145;-73
2022/04/12 09:32:54;;;;;;;7.80;3.13;;;;;;;;;;5013535;28;20033;-70
2022/04/12 09:35:39;;;;;;;9.10;3.20;;;;;;;;;;5016582;28;20109;-72
2022/04/12 09:38:31;;;;;;;6.75;3.22;;;;;;;;;;5013839;28;20381;-71
2022/04/12 09:41:24;;;;;;;6.28;3.50;;;;;;;;;;5025803;28;20485;-69
2022/04/12 09:44:12;;;;;;;8.25;3.00;;;;;;;;;;5022817;28;20033;-73
2022/04/12 09:47:00;;;;;;;4.75;2.90;;;;;;;;;;4996352;28;20388;-66
2022/04/12 09:49:48;;;;;;;6.23;2.67;;;;;;;;;;5000977;28;20888;-70
2022/04/12 09:52:33;;;;;;;4.53;2.70;;;;;;;;;;5010212;28;20648;-66
2022/04/12 09:55:31;;;;;;;5.82;2.78;;;;;;;;;;5004795;28;20041;-66
2022/04/12 09:58:18;;;;;;;6.03;2.72;;;;;;;;;;4996376;28;20045;-68
2022/04/12 10:01:03;;;;;;;4.88;2.53;;;;;;;;;;5004117;28;20045;-68
2022/04/12 10:03:52;;;;;;;4.03;2.70;;;;;;;;;;5008574;28;20030;-70
2022/04/12 10:06:44;;;;;;;5.38;2.35;;;;;;;;;;4998654;28;20499;-71
2022/04/12 10:09:30;;;;;;;3.95;2.75;;;;;;;;;;5027976;28;20037;-69
2022/04/12 10:12:17;;;;;;;6.07;2.75;;;;;;;;;;4998812;28;20034;-64
2022/04/12 10:15:02;;;;;;;7.68;3.10;;;;;;;;;;4994470;28;20474;-64
2022/04/12 10:17:51;;;;;;;6.82;2.72;;;;;;;;;;5028296;28;20030;-64
2022/04/12 10:20:37;;;;;;;6.25;3.35;;;;;;;;;;4999368;28;20026;-65
2022/04/12 10:23:23;;;;;;;5.80;2.60;;;;;;;;;;4995119;28;20030;-64
2022/04/12 10:26:09;;;;;;;7.20;2.97;;;;;;;;;;5007729;28;20112;-62
2022/04/12 10:28:57;;;;;;;5.50;2.58;;;;;;;;;;5002988;28;20042;-63
2022/04/12 10:31:56;;;;;;;3.97;2.30;;;;;;;;;;5010907;28;20026;-63
2022/04/12 10:35:00;;;;;;;5.07;2.67;;;;;;;;;;5022309;28;20026;-63
2022/04/12 10:37:45;;;;;;;5.05;2.67;;;;;;;;;;5018802;28;20038;-63
2022/04/12 10:40:33;;;;;;;5.82;3.00;;;;;;;;;;5015261;28;20034;-67
2022/04/12 10:43:33;;;;;;;4.30;2.58;;;;;;;;;;5033636;28;20025;-67
2022/04/12 10:46:18;;;;;;;7.88;3.53;;;;;;;;;;5020600;28;20044;-67
2022/04/12 10:49:07;;;;;;;4.13;2.42;;;;;;;;;;4990542;28;20404;-65
2022/04/12 10:51:57;;;;;;;3.93;2.57;;;;;;;;;;5009397;28;20037;-66
2022/04/12 10:54:42;;;;;;;8.23;3.30;;;;;;;;;;4999616;28;20051;-63
2022/04/12 10:57:27;;;;;;;5.05;2.30;;;;;;;;;;5022541;28;20465;-66
2022/04/12 11:00:16;;;;;;;6.40;2.35;;;;;;;;;;4997091;28;20399;-66
2022/04/12 11:03:01;;;;;;;6.10;2.23;;;;;;;;;;5021267;28;20559;-66
2022/04/12 11:05:51;;;;;;;5.65;2.70;;;;;;;;;;5010447;28;20018;-64
2022/04/12 11:08:36;;;;;;;4.75;2.63;;;;;;;;;;5023323;28;20065;-68
2022/04/12 11:11:27;;;;;;;4.75;2.42;;;;;;;;;;4997382;28;20392;-67
2022/04/12 11:14:22;;;;;;;3.88;2.28;;;;;;;;;;4994761;28;20109;-68
2022/04/12 11:17:14;;;;;;;3.13;1.90;;;;;;;;;;4996277;28;20026;-71
2022/04/12 11:20:00;;;;;;;4.82;2.55;;;;;;;;;;5001097;28;20025;-69
2022/04/12 11:22:54;;;;;;;3.97;1.88;;;;;;;;;;4981118;28;20113;-70
2022/04/12 11:25:50;;;;;;;4.25;2.20;;;;;;;;;;4994453;28;20070;-72
2022/04/12 11:28:35;;;;;;;6.25;2.45;;;;;;;;;;4993050;28;20037;-70
2022/04/12 11:31:21;;;;;;;4.60;2.28;;;;;;;;;;5009479;28;20488;-71
2022/04/12 11:34:07;;;;;;;5.10;2.47;;;;;;;;;;4994721;28;20408;-63
2022/04/12 11:36:54;;;;;;;5.93;1.92;;;;;;;;;;4971911;28;20018;-62
2022/04/12 11:39:43;;;;;;;2.95;2.00;;;;;;;;;;5006631;28;20105;-60
2022/04/12 11:42:28;;;;;;;;;;;;;;;;;;5011212;28;20022;-60
2022/04/12 11:45:13;;;;;;;3.35;1.92;;;;;;;;;;4987262;28;19989;-60
2022/04/12 11:47:59;;;;;;;4.15;1.90;;;;;;;;;;4991654;28;20397;-61
2022/04/12 11:50:54;;;;;;;4.57;2.33;;;;;;;;;;5017856;28;20018;-64
2022/04/12 11:53:45;;;;;;;3.90;2.30;;;;;;;;;;5015050;28;20500;-65
2022/04/12 11:56:31;;;;;;;4.55;2.03;;;;;;;;;;5008734;28;20026;-65
2022/04/12 11:59:16;;;;;;;5.97;1.90;;;;;;;;;;5008564;28;20098;-65
2022/04/12 12:02:03;;;;;;;6.47;2.15;;;;;;;;;;5016588;28;20036;-65
2022/04/12 12:05:08;;;;;;;3.83;2.25;;;;;;;;;;5018400;28;20021;-64
2022/04/12 12:07:58;;;;;;;3.28;1.63;;;;;;;;;;5003451;28;20049;-64
2022/04/12 12:10:43;;;;;;;9.02;2.25;;;;;;;;;;5026485;28;20022;-62
2022/04/12 12:13:28;;;;;;;6.85;2.33;;;;;;;;;;4995009;28;20068;-66
2022/04/12 12:16:15;;;;;;;3.72;1.90;;;;;;;;;;5008188;28;20076;-64
2022/04/12 12:19:01;;;;;;;3.95;2.10;;;;;;;;;;4996686;28;20044;-62
2022/04/12 12:21:46;;;;;;;4.05;2.05;;;;;;;;;;4972142;28;20493;-63
2022/04/12 12:24:35;;;;;;;4.68;1.77;;;;;;;;;;4990952;28;20049;-64
2022/04/12 12:27:30;;;;;;;6.53;1.92;;;;;;;;;;4997681;28;20056;-67
2022/04/12 12:30:20;;;;;;;3.63;1.85;;;;;;;;;;4990352;28;20634;-61
2022/04/12 12:33:06;;;;;;;3.45;1.80;;;;;;;;;;4997732;28;20536;-62
2022/04/12 12:35:51;;;;;;;5.30;1.98;;;;;;;;;;5006723;28;20108;-61
2022/04/12 12:38:42;;;;;;;5.40;1.73;;;;;;;;;;5007934;28;20340;-61
2022/04/12 12:41:28;;;;;;;3.45;1.83;;;;;;;;;;4993827;28;20100;-60
2022/04/12 12:44:13;;;;;;;6.60;2.20;;;;;;;;;;4994225;28;20110;-60
2022/04/12 12:47:02;;;;;;;6.68;2.50;;;;;;;;;;5018688;28;20121;-66
2022/04/12 12:49:50;;;;;;;3.05;1.52;;;;;;;;;;5012315;28;20041;-64
2022/04/12 12:52:35;;;;;;;3.35;1.60;;;;;;;;;;4993304;28;20036;-61
2022/04/12 12:55:23;;;;;;;2.42;1.70;;;;;;;;;;4979772;28;20041;-62
2022/04/12 12:58:12;;;;;;;3.50;1.67;;;;;;;;;;4975904;28;20025;-63
2022/04/12 13:01:03;;;;;;;2.58;1.60;;;;;;;;;;4979205;28;20108;-62
2022/04/12 13:03:55;;;;;;;5.05;1.73;;;;;;;;;;5002921;28;20049;-61
2022/04/12 13:06:41;;;;;;;4.40;1.60;;;;;;;;;;5010311;28;20076;-60
2022/04/12 13:09:26;;;;;;;2.78;1.80;;;;;;;;;;4994835;28;20037;-65
2022/04/12 13:12:12;;;;;;;6.97;1.77;;;;;;;;;;5000325;28;20402;-66
2022/04/12 13:14:57;;;;;;;2.67;1.73;;;;;;;;;;5007307;28;20045;-68
2022/04/12 13:17:43;;;;;;;9.77;2.33;;;;;;;;;;4992973;28;20164;-69
2022/04/12 13:20:28;;;;;;;3.45;1.80;;;;;;;;;;5014199;28;20034;-68
2022/04/12 13:23:14;;;;;;;5.28;1.83;;;;;;;;;;5023520;28;20357;-69
2022/04/12 13:25:59;;;;;;;2.78;1.50;;;;;;;;;;5008523;28;20513;-80
2022/04/12 13:28:44;;;;;;;4.55;2.05;;;;;;;;;;5006163;28;20045;-80
2022/04/12 13:31:29;;;;;;;2.20;1.50;;;;;;;;;;4996978;28;20369;-77
2022/04/12 13:34:15;;;;;;;4.93;1.65;;;;;;;;;;4979445;28;20191;-78
2022/04/12 13:37:00;;;;;;;5.75;1.88;;;;;;;;;;5021473;28;20116;-79
2022/04/12 13:39:49;;;;;;;1.92;1.50;;;;;;;;;;5020930;28;20026;-78
2022/04/12 13:42:34;;;;;;;5.43;1.70;;;;;;;;;;5010240;28;20112;-72
2022/04/12 13:45:20;;;;;;;4.15;1.30;;;;;;;;;;5018035;28;20029;-66
2022/04/12 13:48:05;;;;;;;4.60;1.63;;;;;;;;;;4990574;28;20042;-64
2022/04/12 13:50:51;;;;;;;2.67;1.30;;;;;;;;;;5003088;28;20563;-64
2022/04/12 13:53:36;;;;;;;1.58;1.15;;;;;;;;;;5006737;28;20041;-64
2022/04/12 13:56:22;;;;;;;3.22;1.88;;;;;;;;;;4993206;28;20084;-65
2022/04/12 13:59:07;;;;;;;4.13;1.60;;;;;;;;;;4988157;28;20115;-69
2022/04/12 14:01:53;;;;;;;1.73;1.30;;;;;;;;;;5012736;28;20038;-71
2022/04/12 14:04:38;;;;;;;2.97;1.50;;;;;;;;;;4999840;28;20037;-80
2022/04/12 14:07:23;;;;;;;5.32;1.80;;;;;;;;;;5020717;28;20034;-79
2022/04/12 14:10:09;;;;;;;6.95;1.58;;;;;;;;;;4989596;28;20030;-81
2022/04/12 14:12:54;;;;;;;4.38;1.33;;;;;;;;;;4997445;28;20037;-79
2022/04/12 14:15:39;;;;;;;3.13;1.33;;;;;;;;;;5010291;28;20469;-78
2022/04/12 14:18:25;;;;;;;3.05;1.35;;;;;;;;;;5024042;28;20040;-72
2022/04/12 14:21:10;;;;;;;2.10;1.30;;;;;;;;;;5020284;28;20402;-69
2022/04/12 14:23:55;;;;;;;1.75;1.30;;;;;;;;;;5002046;28;20033;-70
2022/04/12 14:26:41;;;;;;;3.90;1.38;;;;;;;;;;4994587;28;20390;-69
2022/04/12 14:29:26;;;;;;;4.30;1.42;;;;;;;;;;4996876;28;20443;-68
2022/04/12 14:32:11;;;;;;;3.55;1.83;;;;;;;;;;5025097;28;20033;-69
2022/04/12 14:34:57;;;;;;;3.92;1.58;;;;;;;;;;4981879;28;20029;-73
2022/04/12 14:37:43;;;;;;;1.58;1.38;;;;;;;;;;5015836;28;20021;-67
2022/04/12 14:40:29;;;;;;;3.20;1.50;;;;;;;;;;4995456;28;20493;-76
2022/04/12 14:43:14;;;;;;;5.03;1.77;;;;;;;;;;5005185;28;20029;-78
2022/04/12 14:46:00;;;;;;;4.35;1.83;;;;;;;;;;4979881;28;20034;-81
2022/04/12 14:48:45;;;;;;;2.03;1.35;;;;;;;;;;5026744;28;20029;-80
2022/04/12 14:51:30;;;;;;;2.50;1.58;;;;;;;;;;4987344;28;20030;-80
2022/04/12 14:54:16;;;;;;;2.83;1.40;;;;;;;;;;4983376;28;20034;-68
2022/04/12 14:57:01;;;;;;;3.40;1.48;;;;;;;;;;4992336;28;20041;-72
2022/04/12 14:59:46;;;;;;;3.58;2.17;;;;;;;;;;4991095;28;20025;-79
2022/04/12 15:02:32;;;;;;;3.22;1.40;;;;;;;;;;4995436;28;20014;-79
2022/04/12 15:05:17;;;;;;;2.63;1.20;;;;;;;;;;4983419;28;20033;-79
2022/04/12 15:08:06;;;;;;;2.53;1.35;;;;;;;;;;5021815;28;20046;-79
2022/04/12 15:10:52;;;;;;;2.30;1.48;;;;;;;;;;5011990;28;20018;-80
2022/04/12 15:13:37;;;;;;;4.25;1.60;;;;;;;;;;4982664;28;20029;-67
2022/04/12 15:16:23;;;;;;;2.25;1.48;;;;;;;;;;5001752;28;20468;-70
2022/04/12 15:19:08;;;;;;;3.60;1.58;;;;;;;;;;5013661;28;20496;-72
2022/04/12 15:21:53;;;;;;;6.30;1.50;;;;;;;;;;4984091;28;20037;-70
2022/04/12 15:24:38;;;;;;;3.97;1.70;;;;;;;;;;4996304;28;20153;-68
2022/04/12 15:27:24;;;;;;;3.53;1.60;;;;;;;;;;4981869;28;20046;-68
2022/04/12 15:30:10;;;;;;;4.43;1.70;;;;;;;;;;5003530;28;20473;-70
2022/04/12 15:32:55;;;;;;;3.80;1.85;;;;;;;;;;4979668;28;20504;-65
2022/04/12 15:35:41;;;;;;;6.63;2.17;;;;;;;;;;5007830;28;20729;-67
2022/04/12 15:38:26;;;;;;;2.95;1.60;;;;;;;;;;5008470;28;20551;-67
2022/04/12 15:41:11;;;;;;;4.38;1.85;;;;;;;;;;5022322;28;20022;-66
2022/04/12 15:43:56;;;;;;;3.13;2.00;;;;;;;;;;5015069;28;20493;-68
2022/04/12 15:46:42;;;;;;;4.20;2.17;;;;;;;;;;5022310;28;20033;-66
2022/04/12 15:49:28;;;;;;;3.28;1.40;;;;;;;;;;5005247;28;20072;-70
2022/04/12 15:52:13;;;;;;;6.55;1.75;;;;;;;;;;4999442;28;20036;-68
2022/04/12 15:54:58;;;;;;;4.07;1.80;;;;;;;;;;5010966;28;20192;-68
2022/04/12 15:57:44;;;;;;;3.40;1.50;;;;;;;;;;4994479;28;20428;-70
2022/04/12 16:00:30;;;;;;;3.65;1.83;;;;;;;;;;5007018;28;20081;-69
2022/04/12 16:03:15;;;;;;;6.63;1.60;;;;;;;;;;5020020;28;20029;-67
2022/04/12 16:06:01;;;;;;;2.38;1.80;;;;;;;;;;4999594;28;20034;-68
2022/04/12 16:08:46;;;;;;;4.53;2.20;;;;;;;;;;4980707;28;22794;-73
2022/04/12 16:11:32;;;;;;;2.35;1.98;;;;;;;;;;4997491;28;20490;-67
2022/04/12 16:14:17;;;;;;;4.43;1.90;;;;;;;;;;4998588;28;20045;-71
2022/04/12 16:17:03;;;;;;;3.15;1.73;;;;;;;;;;5004620;28;20037;-68
2022/04/12 16:19:51;;;;;;;3.67;2.05;;;;;;;;;;4992622;28;20057;-68
2022/04/12 16:22:37;;;;;;;3.05;2.33;;;;;;;;;;5027075;28;20133;-70
2022/04/12 16:25:23;;;;;;;4.63;1.83;;;;;;;;;;5007457;28;20504;-69
2022/04/12 16:28:08;;;;;;;3.38;2.25;;;;;;;;;;4995583;28;20094;-67
2022/04/12 16:30:53;;;;;;;3.72;2.03;;;;;;;;;;5010379;28;20088;-66
2022/04/12 16:33:38;;;;;;;6.32;2.58;;;;;;;;;;4997030;28;20412;-67